»·PEaware :: N396U KASE-KABQ

N396U :: KASE-KABQ

FLIGHT INFORMATION

Flight Status: Arrived
Operator: Privately registered:
United States
More flights under this callsign
Pilot: Tanner C. (11250)
Aircraft: BOMBARDIER BD-100 CHALLENGER 300
(CL30)
More flights by this aircraft type
Origin: KASE Aspen-Pitkin Co/Sardy
United States
Destination: KABQ Albuquerque Intl Sunport
United States
More flights between these airports :: More routes between these airports
Route: LINDZ8 LINDZ HBU DATME SNDIA3
File this flight plan on PilotEdge
Remarks:
Altitude:
(Current/Filed)
31,000ft
Speed:
(Current/Filed)
400kts
Departed: 02-Jan-18 04:37 PM
Arrived: 02-Jan-18 05:25 PM
Distance/Time
Traveled:
251nm/0:48
Distance/Time
To Go:
Arrived

Flight Plot

Page will automatically refresh every two minutes.

Flight plan parsing failed; only flown route is shown


Map Options




Map Legend


Flown Route
Filed Route
Departure Airport
Arrival Airport
Navaid (VOR, NDB)
Fix

Horizontal Profiles

Position Reports

Time Latitude Longitude Heading Altitude Ground
Speed
02-Jan-18 16:34 39.221070 -106.866213 0 7762ft 0kts
02-Jan-18 16:35 39.221070 -106.866213 245 7762ft 0kts
02-Jan-18 16:36 39.221070 -106.866213 245 7762ft 0kts
02-Jan-18 16:37 39.221070 -106.866213 245 7762ft 0kts
02-Jan-18 16:38 39.221070 -106.866214 245 7762ft 0kts
02-Jan-18 16:39 39.221070 -106.866214 245 7762ft 0kts
02-Jan-18 16:40 39.220689 -106.866237 158 7764ft 7kts
02-Jan-18 16:41 39.217826 -106.865470 159 7782ft 17kts
02-Jan-18 16:42 39.214430 -106.864648 325 7801ft 18kts
02-Jan-18 16:43 39.240869 -106.875410 350 8879ft 199kts
02-Jan-18 16:44 39.275624 -106.924279 280 11164ft 312kts
02-Jan-18 16:45 39.291736 -107.028514 285 15208ft 354kts
02-Jan-18 16:46 39.348637 -107.123210 289 19637ft 373kts
02-Jan-18 16:47 39.300919 -107.232256 202 19992ft 427kts
02-Jan-18 16:48 39.194382 -107.219819 172 22046ft 448kts
02-Jan-18 16:49 39.080754 -107.191924 170 25168ft 469kts
02-Jan-18 16:50 38.959980 -107.162376 170 27934ft 487kts
02-Jan-18 16:51 38.850407 -107.135705 170 30972ft 478kts
02-Jan-18 16:52 38.766126 -107.115293 170 31408ft 475kts
02-Jan-18 16:53 38.673896 -107.093047 170 31373ft 475kts
02-Jan-18 16:54 38.586605 -107.072045 170 31382ft 507kts
02-Jan-18 16:55 38.478858 -107.046144 170 31372ft 523kts
02-Jan-18 16:56 38.366330 -106.993560 157 31374ft 523kts
02-Jan-18 16:57 38.247581 -106.931426 157 31376ft 523kts
02-Jan-18 16:58 38.146384 -106.878251 157 31377ft 523kts
02-Jan-18 16:59 38.033798 -106.819191 157 31379ft 523kts
02-Jan-18 17:00 37.925848 -106.762730 157 31343ft 523kts
02-Jan-18 17:01 37.832378 -106.713987 157 31316ft 523kts
02-Jan-18 17:02 37.738804 -106.665315 157 31348ft 524kts
02-Jan-18 17:03 37.639293 -106.613708 157 31421ft 523kts
02-Jan-18 17:04 37.537582 -106.561116 157 31471ft 523kts
02-Jan-18 17:05 37.430096 -106.505705 157 31483ft 523kts
02-Jan-18 17:06 37.318097 -106.448142 157 31485ft 524kts
02-Jan-18 17:07 37.201557 -106.388456 157 31484ft 535kts
02-Jan-18 17:08 37.085272 -106.329086 158 31399ft 534kts
02-Jan-18 17:09 36.952941 -106.261771 158 31354ft 535kts
02-Jan-18 17:10 36.839839 -106.204447 158 31338ft 535kts
02-Jan-18 17:11 36.730327 -106.149100 158 31340ft 536kts
02-Jan-18 17:12 36.588423 -106.135311 196 31330ft 521kts
02-Jan-18 17:13 36.464792 -106.198483 210 31346ft 508kts
02-Jan-18 17:14 36.345210 -106.256573 208 31059ft 492kts
02-Jan-18 17:15 36.225200 -106.310527 207 30407ft 492kts
02-Jan-18 17:16 36.102193 -106.364613 207 29603ft 493kts
02-Jan-18 17:17 35.978042 -106.417923 209 28172ft 465kts
02-Jan-18 17:18 35.861816 -106.467333 204 25222ft 454kts
02-Jan-18 17:19 35.745852 -106.514653 204 22075ft 430kts
02-Jan-18 17:20 35.636742 -106.559057 203 18966ft 409kts
02-Jan-18 17:21 35.535080 -106.608074 208 16034ft 381kts
02-Jan-18 17:22 35.443887 -106.657317 207 15357ft 398kts
02-Jan-18 17:23 35.348663 -106.708728 203 11932ft 367kts
02-Jan-18 17:24 35.262209 -106.757216 206 10014ft 305kts
02-Jan-18 17:25 35.194287 -106.798795 206 10021ft 258kts
02-Jan-18 17:26 35.130991 -106.802567 153 10031ft 245kts
02-Jan-18 17:27 35.071206 -106.766056 153 7902ft 236kts
02-Jan-18 17:28 35.040043 -106.723765 80 6574ft 153kts
02-Jan-18 17:29 35.044743 -106.671290 89 6020ft 164kts
02-Jan-18 17:30 35.044336 -106.618745 90 5323ft 142kts
02-Jan-18 17:31 35.044784 -106.602404 347 5320ft 12kts
02-Jan-18 17:32 35.045747 -106.603912 347 5321ft 13kts
02-Jan-18 17:33 35.047481 -106.604377 268 5321ft 0kts
02-Jan-18 17:34 35.047481 -106.604377 268 5321ft 0kts
02-Jan-18 17:35 35.047481 -106.604377 268 5321ft 0kts
02-Jan-18 17:36 35.047481 -106.604377 268 5321ft 0kts

Navigation Log

Ident Type
Flight plan parsing failed, navigation log unavailable